• Join FlightAware (Why Join?)
  • Login
  • US Flag 
06:46AM EDT


 

Airport Tracker/Info


-or-


 

Live Flight TrackerFlight Track Log ✈ ASQ4179 ✈ 22-Jun-2013 ✈ KEWR - KBOS

Flight Track Log - Related Links

Times and Time Zones

All times are in EDT time to prevent confusion due to time zone crossing. See the ASQ4179 flight status page for this flight to view local times or setup timezone preferences in your user account.

Time Position Orientation Groundspeed Altitude Reporting Facility
EDT Latitude Longitude Course Direction KTS MPH feet Rate Location/Type
08:05AM 40.6333 -74.2000 47° Northeast 197 227 2,300  Level New York TRACON
08:06AM 40.6833 -74.2167 346° North 241 277 4,400 2,040 Climbing New York TRACON
08:07AM 40.8124 -73.9709 37° Northeast  Level FlightAware Approximate
08:07AM 40.7333 -74.1667 37° Northeast 263 303 6,400  Level New York TRACON
08:08AM 40.8576 -73.9091 37° Northeast  Level FlightAware Approximate
08:08AM 40.7667 -74.0833 62° Northeast 278 320 8,700  Level New York TRACON
08:09AM 40.8978 -73.8465 47° Northeast  Level FlightAware Approximate
08:09AM 40.8167 -73.9833 57° Northeast 308 354 10,100  Level New York TRACON
08:10AM 40.9431 -73.7830 47° Northeast  Level FlightAware Approximate
08:10AM 40.8833 -73.8833 49° Northeast 350 403 11,200  Level New York TRACON
08:13AM 41.0519 -73.6375 48° Northeast 377 434 12,200 600 Climbing Boston Center
08:14AM 41.1133 -73.5447 49° Northeast 377 434 13,400 1,380 Climbing Boston Center
08:15AM 41.1894 -73.4275 49° Northeast 377 434 15,000 1,560 Climbing Boston Center
08:16AM 41.2611 -73.3236 47° Northeast 377 434 16,600 960 Climbing Boston Center
08:17AM 41.3244 -73.2306 48° Northeast 377 434 17,000 600 Climbing Boston Center
08:18AM 41.3878 -73.0875 59° Northeast 396 456 17,800 900 Climbing Boston Center
08:19AM 41.4072 -72.9522 79° East 410 472 18,800 600 Climbing Boston Center
08:20AM 41.4350 -72.7833 78° East 420 483 19,000 60 Climbing Boston Center
08:21AM 41.4583 -72.6367 78° East 435 501 19,000  Level Boston Center
08:22AM 41.4897 -72.4539 77° East 450 518 19,000  Level Boston Center
08:23AM 41.5272 -72.3097 71° East 450 518 19,000  Level Boston Center
08:24AM 41.5728 -72.1514 69° East 456 525 19,000 -540 Level Boston Center
08:25AM 41.6200 -71.9819 70° East 451 519 18,000 -1,440 Descending Boston Center
08:26AM 41.6569 -71.8539 69° East 428 493 16,200 -1,800 Descending Boston Center
08:27AM 41.7039 -71.6922 69° East 414 476 14,400 -1,500 Descending Boston Center
08:28AM 41.7467 -71.5497 68° East 414 476 13,300 -960 Descending Boston Center
08:29AM 41.7933 -71.4097 66° East 414 476 12,500 -900 Descending Boston Center
08:30AM 41.8528 -71.2892 56° Northeast 395 455 11,600 -720 Descending Boston Center
08:31AM 41.9269 -71.2094 39° Northeast 343 395 11,100 -840 Descending Boston Center
08:32AM 42.0081 -71.1997 North 297 342 10,000 -1,260 Descending Boston Center
08:33AM 42.0831 -71.1925 North 280 322 8,600 -1,740 Descending Boston Center
08:34AM 42.1578 -71.1797 North 269 310 6,600 -1,800 Descending Boston Center
08:35AM 42.2308 -71.1700 North 274 315 5,100 -840 Descending Boston Center
08:36AM 42.3078 -71.1544 North 275 316 5,000 -60 Descending Boston Center
08:37AM 42.3761 -71.1219 19° North 275 316 5,000 -720 Level Boston Center
08:38AM 42.4528 -71.0781 23° Northeast 275 316 3,600 -1,020 Descending Boston Center
08:39AM 42.5147 -71.0458 21° North 270 311 3,000 -300 Descending Boston Center
08:40AM 42.5389 -70.9692 67° East 216 249 3,000 -360 Level Boston Center
08:41AM 42.4867 -70.9564 170° South 125 144 2,300 -720 Descending Boston Center
08:42AM 42.4367 -70.9744 195° South 171 197 1,600 -780 Descending Boston Center
08:43AM 42.3833 -70.9833 187° South 132 152 500 -840 Descending KA90
08:45AM 42.3630 -71.0064 188° South  Level Estimated